KRNV

Details ICAO KRNV
Name CLEVELAND MUNI
Region United States
Timezone America/Chicago (UTC-5.0)
Plans Departing 13
Arriving 9
Stats Elevation 140 ft / 43 m (AMSL)
Location 33.761142° -90.757873°
Runways 1
Magnetic Variation 0.746° W
Sunrise 2018-05-26 10:57:07 UTC / 2018-05-26 05:57:07 Local
Sunset 2018-05-27 01:05:58 UTC / 2018-05-26 20:05:58 Local
Advertisement - Login to hide

Runways

ID Width Length Bearing (true) Bearing (mag) Surface Threshold Offset Overrun Length
17 75 ft / 23 m 4,017 ft / 1,224 m 177.88° 178.63° Asphalt 0 ft / 0 m 0 ft / 0 m
35 75 ft / 23 m 4,017 ft / 1,224 m 357.88° 358.63° Asphalt 0 ft / 0 m 0 ft / 0 m

Map

Weather


0- 5 10 15 20 25 30 35+ Temperature / ° C

Clouds and Precipitation
Forecast for 2018-05-27 00:00 UTC. Updated 5 hours ago

Ground ~20,000 ft ~40,000 ft Winds

METAR

KRNV 270355Z AUTO 22004KT 10SM CLR 22/22 A2987 RMK AO2 T02150215

TAF

Not found

Frequencies

Recorded 124.17 MHz AWOS 3
Unicom 122.72 MHz CTAF/UNICOM
Warning: Do not use this data for real-world aviation or navigation. No guarantee of current accuracy is given.